createdAt,value
2023-03-02T00:03:23.864Z,54.90
2023-03-02T00:13:48.246Z,45.70
2023-03-02T00:24:14.822Z,48.90
2023-03-02T00:34:39.396Z,44.10
2023-03-02T00:45:05.613Z,39.30
2023-03-02T00:55:29.784Z,37.90
2023-03-02T01:05:54.750Z,41.60
2023-03-02T01:16:18.993Z,51.10
2023-03-02T01:26:43.298Z,58.20
2023-03-02T01:37:07.483Z,67.30
2023-03-02T01:47:34.789Z,69.00
2023-03-02T01:58:00.851Z,57.80
2023-03-02T02:08:25.858Z,48.80
2023-03-02T02:18:50.159Z,51.10
2023-03-02T02:29:21.992Z,57.00
2023-03-02T02:39:48.733Z,48.30
2023-03-02T02:50:19.386Z,55.10
2023-03-02T03:00:43.626Z,70.40
2023-03-02T03:11:08.905Z,71.40
2023-03-02T03:21:33.768Z,71.10
2023-03-02T03:32:00.090Z,76.20
2023-03-02T03:42:24.321Z,74.00
2023-03-02T03:52:48.986Z,72.90
2023-03-02T04:03:13.312Z,59.00
2023-03-02T04:13:37.502Z,60.00
2023-03-02T04:24:01.708Z,65.50
2023-03-02T04:34:26.004Z,54.00
2023-03-02T04:44:50.213Z,60.20
2023-03-02T04:55:20.592Z,56.90
2023-03-02T05:05:44.928Z,53.10
2023-03-02T05:16:09.320Z,53.80
2023-03-02T05:26:33.953Z,52.50
2023-03-02T05:36:58.311Z,50.70
2023-03-02T05:47:22.518Z,51.60
2023-03-02T05:57:48.666Z,61.50
2023-03-02T06:08:12.942Z,56.20
2023-03-02T06:18:39.717Z,57.90
2023-03-02T06:29:06.025Z,58.50
2023-03-02T06:39:30.214Z,90.50
2023-03-02T06:49:54.475Z,113.70
2023-03-02T07:00:26.046Z,120.00
2023-03-02T07:10:50.430Z,112.90
2023-03-02T07:21:15.342Z,102.10
2023-03-02T07:31:40.165Z,107.10
2023-03-02T07:42:08.237Z,83.20
2023-03-02T07:52:32.451Z,53.00
2023-03-02T08:02:57.322Z,47.60
2023-03-02T08:13:22.341Z,38.00
2023-03-02T08:23:47.452Z,43.30
2023-03-02T08:34:11.965Z,36.80
2023-03-02T08:44:37.034Z,36.40
2023-03-02T08:55:03.870Z,34.40
2023-03-02T09:05:29.204Z,31.10
2023-03-02T09:15:54.078Z,32.10
2023-03-02T09:26:18.387Z,35.10
2023-03-02T09:36:43.332Z,34.50
2023-03-02T09:47:29.944Z,36.90
2023-03-02T09:58:01.927Z,33.90
2023-03-02T10:08:28.668Z,33.60
2023-03-02T10:19:05.214Z,27.80
2023-03-02T10:29:47.260Z,21.40
2023-03-02T10:40:29.587Z,20.70
2023-03-02T10:50:56.517Z,19.80
2023-03-02T11:01:20.843Z,19.30
2023-03-02T11:11:52.931Z,17.30
2023-03-02T11:22:27.783Z,18.10
2023-03-02T11:32:57.925Z,18.20
2023-03-02T11:43:22.267Z,21.20
2023-03-02T11:53:50.134Z,20.70
2023-03-02T12:04:28.406Z,20.60
2023-03-02T12:14:53.211Z,21.00
2023-03-02T12:25:36.287Z,21.80
2023-03-02T12:36:11.662Z,14.30
2023-03-02T12:46:39.463Z,18.30
2023-03-02T12:57:08.103Z,14.30
2023-03-02T13:07:38.048Z,15.60
2023-03-02T13:18:03.082Z,14.40
2023-03-02T13:28:29.685Z,13.30
2023-03-02T13:38:59.050Z,14.30
2023-03-02T13:49:32.004Z,17.30
2023-03-02T13:59:57.289Z,16.20
2023-03-02T14:10:22.114Z,13.20
2023-03-02T14:20:47.426Z,16.10
2023-03-02T14:31:12.498Z,24.40
2023-03-02T14:41:51.183Z,16.10
2023-03-02T14:52:30.279Z,17.50
2023-03-02T15:02:54.821Z,18.00
2023-03-02T15:13:19.736Z,17.10
2023-03-02T15:23:44.720Z,16.10
2023-03-02T15:34:08.947Z,17.90
2023-03-02T15:44:34.058Z,17.20
2023-03-02T15:54:58.499Z,23.20
2023-03-02T16:05:22.811Z,25.40
2023-03-02T16:15:47.147Z,20.10
2023-03-02T16:26:14.670Z,21.70
2023-03-02T16:36:40.887Z,21.10
2023-03-02T16:47:05.600Z,22.10
2023-03-02T16:57:29.820Z,17.80
2023-03-02T17:07:56.442Z,29.60
2023-03-02T17:18:21.359Z,25.30
2023-03-02T17:28:45.628Z,17.80
2023-03-02T17:39:10.285Z,27.00
2023-03-02T17:49:37.530Z,19.20
2023-03-02T18:00:02.256Z,16.10
2023-03-02T18:10:26.559Z,19.40
2023-03-02T18:20:50.876Z,18.20
2023-03-02T18:31:17.832Z,16.10
2023-03-02T18:41:43.276Z,28.60
2023-03-02T18:52:09.411Z,43.80
2023-03-02T19:02:34.354Z,24.20
2023-03-02T19:12:58.828Z,17.20
2023-03-02T19:23:23.306Z,27.70
2023-03-02T19:33:48.011Z,24.70
2023-03-02T19:44:12.356Z,21.30
2023-03-02T19:54:36.635Z,29.30
2023-03-02T20:05:01.566Z,28.30
2023-03-02T20:15:37.873Z,22.50
2023-03-02T20:26:02.849Z,33.50
2023-03-02T20:36:30.074Z,28.30
2023-03-02T20:46:58.512Z,21.30
2023-03-02T20:57:23.116Z,29.40
2023-03-02T21:07:48.081Z,33.90
2023-03-02T21:18:12.824Z,30.10
2023-03-02T21:28:38.248Z,35.20
2023-03-02T21:39:04.147Z,37.00
2023-03-02T21:49:28.514Z,34.50
2023-03-02T21:59:54.100Z,33.70
2023-03-02T22:10:24.585Z,38.60
2023-03-02T22:20:50.313Z,33.70
2023-03-02T22:31:20.029Z,41.80
2023-03-02T22:41:44.284Z,32.90
2023-03-02T22:52:17.173Z,48.10
2023-03-02T23:02:44.109Z,45.30
2023-03-02T23:13:09.581Z,38.50
2023-03-02T23:23:34.308Z,44.70
2023-03-02T23:33:58.509Z,44.60
2023-03-02T23:44:22.852Z,37.40
2023-03-02T23:54:47.243Z,42.80
